createdAt,value
2023-03-06T00:01:23.870Z,11.10
2023-03-06T00:04:32.445Z,11.40
2023-03-06T00:07:47.898Z,11.82
2023-03-06T00:11:04.872Z,10.83
2023-03-06T00:14:13.498Z,12.30
2023-03-06T00:17:21.961Z,9.88
2023-03-06T00:20:39.801Z,9.57
2023-03-06T00:23:47.873Z,8.30
2023-03-06T00:27:02.977Z,10.43
2023-03-06T00:30:05.550Z,11.12
2023-03-06T00:33:19.930Z,10.82
2023-03-06T00:36:34.945Z,8.48
2023-03-06T00:39:37.145Z,10.40
2023-03-06T00:42:52.906Z,9.70
2023-03-06T00:45:54.844Z,10.05
2023-03-06T00:49:10.927Z,9.52
2023-03-06T00:52:19.863Z,9.80
2023-03-06T00:55:28.941Z,10.07
2023-03-06T00:58:37.503Z,10.53
2023-03-06T01:01:51.961Z,8.45
2023-03-06T01:04:53.896Z,8.95
2023-03-06T01:08:09.944Z,9.95
2023-03-06T01:11:17.940Z,8.32
2023-03-06T01:14:33.897Z,13.33
2023-03-06T01:17:41.955Z,8.20
2023-03-06T01:20:57.233Z,9.00
2023-03-06T01:24:05.985Z,12.02
2023-03-06T01:27:20.929Z,9.10
2023-03-06T01:30:29.498Z,10.03
2023-03-06T01:33:38.005Z,8.80
2023-03-06T01:36:53.121Z,11.18
2023-03-06T01:40:07.968Z,9.50
2023-03-06T01:43:39.918Z,10.45
2023-03-06T01:46:43.646Z,12.00
2023-03-06T01:50:00.008Z,11.35
2023-03-06T01:53:01.956Z,7.90
2023-03-06T01:56:20.003Z,8.73
2023-03-06T01:59:23.681Z,8.18
2023-03-06T02:02:39.060Z,9.87
2023-03-06T02:05:42.608Z,8.65
2023-03-06T02:08:59.049Z,8.25
2023-03-06T02:12:09.940Z,9.55
2023-03-06T02:15:28.954Z,9.27
2023-03-06T02:18:52.946Z,9.43
2023-03-06T02:22:09.955Z,7.90
2023-03-06T02:25:38.569Z,10.23
2023-03-06T02:28:46.961Z,9.10
2023-03-06T02:31:56.138Z,10.48
2023-03-06T02:35:11.946Z,7.63
2023-03-06T02:38:17.642Z,8.70
2023-03-06T02:41:33.015Z,10.90
2023-03-06T02:44:47.933Z,11.18
2023-03-06T02:47:49.831Z,7.97
2023-03-06T02:51:04.976Z,9.97
2023-03-06T02:54:13.593Z,8.65
2023-03-06T02:57:21.956Z,8.77
2023-03-06T03:00:39.023Z,11.25
2023-03-06T03:03:41.865Z,7.68
2023-03-06T03:06:57.064Z,9.87
2023-03-06T03:09:58.907Z,8.70
2023-03-06T03:13:14.003Z,8.63
2023-03-06T03:16:23.063Z,9.07
2023-03-06T03:19:37.950Z,9.95
2023-03-06T03:22:57.967Z,9.87
2023-03-06T03:26:14.939Z,9.75
2023-03-06T03:29:17.589Z,9.35
2023-03-06T03:32:33.077Z,11.50
2023-03-06T03:35:42.112Z,11.07
2023-03-06T03:38:50.602Z,8.67
2023-03-06T03:41:58.961Z,10.20
2023-03-06T03:45:14.957Z,12.57
2023-03-06T03:48:16.722Z,8.82
2023-03-06T03:51:31.028Z,10.15
2023-03-06T03:54:33.648Z,6.70
2023-03-06T03:57:47.998Z,9.52
2023-03-06T04:00:50.023Z,9.27
2023-03-06T04:04:05.017Z,10.75
2023-03-06T04:07:06.854Z,10.43
2023-03-06T04:10:21.978Z,8.53
2023-03-06T04:13:24.590Z,10.50
2023-03-06T04:16:39.005Z,11.07
2023-03-06T04:19:53.994Z,7.80
2023-03-06T04:23:09.010Z,6.72
2023-03-06T04:26:10.820Z,8.47
2023-03-06T04:29:25.985Z,10.35
2023-03-06T04:32:34.635Z,10.15
2023-03-06T04:35:49.061Z,9.25
2023-03-06T04:38:50.992Z,9.35
2023-03-06T04:42:07.001Z,10.50
2023-03-06T04:45:23.098Z,12.02
2023-03-06T04:48:25.151Z,13.13
2023-03-06T04:51:40.035Z,11.75
2023-03-06T04:54:48.617Z,15.05
2023-03-06T04:58:05.011Z,9.97
2023-03-06T05:01:07.061Z,13.48
2023-03-06T05:04:22.029Z,13.48
2023-03-06T05:07:30.138Z,11.70
2023-03-06T05:10:45.058Z,14.00
2023-03-06T05:13:53.696Z,11.30
2023-03-06T05:17:02.007Z,11.75
2023-03-06T05:20:26.172Z,12.32
2023-03-06T05:23:29.184Z,13.88
2023-03-06T05:26:44.083Z,12.00
2023-03-06T05:29:53.026Z,16.73
2023-03-06T05:33:08.069Z,17.40
2023-03-06T05:36:17.066Z,13.77
2023-03-06T05:39:25.793Z,12.88
2023-03-06T05:42:40.042Z,12.60
2023-03-06T05:45:55.042Z,15.07
2023-03-06T05:49:10.150Z,14.10
2023-03-06T05:52:13.235Z,15.48
2023-03-06T05:55:28.014Z,18.73
2023-03-06T05:58:44.073Z,14.18
2023-03-06T06:01:46.516Z,13.77
2023-03-06T06:05:01.057Z,14.32
2023-03-06T06:08:02.958Z,12.98
2023-03-06T06:11:19.049Z,16.92
2023-03-06T06:14:28.077Z,27.10
2023-03-06T06:17:50.098Z,13.80
2023-03-06T06:21:05.142Z,10.30
2023-03-06T06:24:22.085Z,14.57
2023-03-06T06:27:30.634Z,11.77
2023-03-06T06:30:45.174Z,16.95
2023-03-06T06:33:53.721Z,14.73
2023-03-06T06:37:02.087Z,13.90
2023-03-06T06:40:18.037Z,15.18
2023-03-06T06:43:26.074Z,14.45
2023-03-06T06:50:11.091Z,12.40
2023-03-06T06:53:19.670Z,12.55
2023-03-06T06:56:34.103Z,13.45
2023-03-06T06:59:43.130Z,14.35
2023-03-06T07:02:52.081Z,14.10
2023-03-06T07:06:00.955Z,14.87
2023-03-06T07:09:17.094Z,12.20
2023-03-06T07:12:32.808Z,12.75
2023-03-06T07:15:41.167Z,15.00
2023-03-06T07:18:50.393Z,13.93
2023-03-06T07:22:05.180Z,21.17
2023-03-06T07:25:14.086Z,16.70
2023-03-06T07:28:22.999Z,10.02
2023-03-06T07:31:34.147Z,15.85
2023-03-06T07:34:50.425Z,8.35
2023-03-06T07:41:22.480Z,11.32
2023-03-06T07:44:30.901Z,11.77
2023-03-06T07:47:47.107Z,11.68
2023-03-06T07:51:07.187Z,11.95
2023-03-06T07:54:23.306Z,14.23
2023-03-06T07:57:32.127Z,17.90
2023-03-06T08:00:47.114Z,19.35
2023-03-06T08:03:55.959Z,15.35
2023-03-06T08:07:12.097Z,16.48
2023-03-06T08:10:27.667Z,22.53
2023-03-06T08:13:36.640Z,16.10
2023-03-06T08:16:51.114Z,15.05
2023-03-06T08:20:05.378Z,16.23
2023-03-06T08:23:14.062Z,13.15
2023-03-06T08:26:33.178Z,13.97
2023-03-06T08:29:35.146Z,13.20
2023-03-06T08:32:53.105Z,13.98
2023-03-06T08:36:08.138Z,18.83
2023-03-06T08:39:17.097Z,25.48
2023-03-06T08:42:32.121Z,22.57
2023-03-06T08:45:33.895Z,19.20
2023-03-06T08:48:49.134Z,18.48
2023-03-06T08:51:57.934Z,21.40
2023-03-06T08:55:07.246Z,21.87
2023-03-06T08:58:22.198Z,18.10
2023-03-06T09:01:33.433Z,18.40
2023-03-06T09:04:48.163Z,17.33
2023-03-06T09:08:03.171Z,17.37
2023-03-06T09:11:21.115Z,17.37
2023-03-06T09:14:31.209Z,24.63
2023-03-06T09:17:40.145Z,18.90
2023-03-06T09:20:55.120Z,22.75
2023-03-06T09:23:57.419Z,17.77
2023-03-06T09:27:44.159Z,16.70
2023-03-06T09:31:00.260Z,22.03
2023-03-06T09:34:08.949Z,18.35
2023-03-06T09:37:17.437Z,15.95
2023-03-06T09:40:39.134Z,15.00
2023-03-06T09:43:58.180Z,15.40
2023-03-06T09:47:21.826Z,19.23
2023-03-06T09:50:51.092Z,15.93
2023-03-06T09:54:11.151Z,15.00
2023-03-06T09:57:26.030Z,17.40
2023-03-06T10:00:45.191Z,17.00
2023-03-06T10:04:18.217Z,17.00
2023-03-06T10:07:23.708Z,20.90
2023-03-06T10:10:51.175Z,16.40
2023-03-06T10:14:07.507Z,18.92
2023-03-06T10:17:25.142Z,17.65
2023-03-06T10:20:39.352Z,76.50
2023-03-06T10:24:01.168Z,33.78
2023-03-06T10:27:22.223Z,22.37
2023-03-06T10:30:50.653Z,28.55
2023-03-06T10:34:08.166Z,25.45
2023-03-06T10:37:27.257Z,25.00
2023-03-06T10:40:50.214Z,19.90
2023-03-06T10:44:19.846Z,20.15
2023-03-06T10:47:36.161Z,22.05
2023-03-06T10:50:44.908Z,20.52
2023-03-06T10:54:01.214Z,18.37
2023-03-06T10:57:32.217Z,21.12
2023-03-06T11:01:07.440Z,22.20
2023-03-06T11:04:44.317Z,23.80
2023-03-06T11:07:56.472Z,20.25
2023-03-06T11:11:11.133Z,21.60
2023-03-06T11:14:33.251Z,17.67
2023-03-06T11:17:38.087Z,25.67
2023-03-06T11:20:57.225Z,21.37
2023-03-06T11:24:25.228Z,26.08
2023-03-06T11:27:38.222Z,22.37
2023-03-06T11:30:54.850Z,21.65
2023-03-06T11:34:15.203Z,18.50
2023-03-06T11:37:50.179Z,23.42
2023-03-06T11:41:05.299Z,15.90
2023-03-06T11:44:28.166Z,18.53
2023-03-06T11:47:47.242Z,18.67
2023-03-06T11:51:06.535Z,16.90
2023-03-06T11:54:19.215Z,28.38
2023-03-06T11:57:45.240Z,23.73
2023-03-06T12:01:07.241Z,23.07
2023-03-06T12:04:35.757Z,25.58
2023-03-06T12:08:04.204Z,56.00
2023-03-06T12:11:33.161Z,26.80
2023-03-06T12:15:18.183Z,18.15
2023-03-06T12:18:56.231Z,17.83
2023-03-06T12:22:23.356Z,17.95
2023-03-06T12:25:43.164Z,18.00
2023-03-06T12:29:28.283Z,28.83
2023-03-06T12:32:59.263Z,24.15
2023-03-06T12:36:28.469Z,22.43
2023-03-06T12:40:10.261Z,33.03
2023-03-06T12:43:51.409Z,21.23
2023-03-06T12:47:14.209Z,21.83
2023-03-06T12:50:32.561Z,17.52
2023-03-06T12:53:48.233Z,21.33
2023-03-06T12:56:52.004Z,18.65
2023-03-06T13:00:07.383Z,19.83
2023-03-06T13:03:48.257Z,25.15
2023-03-06T13:10:50.250Z,18.57
2023-03-06T13:13:58.720Z,17.55
2023-03-06T13:17:41.341Z,20.70
2023-03-06T13:20:44.783Z,21.40
2023-03-06T13:24:11.286Z,23.62
2023-03-06T13:27:49.816Z,20.83
2023-03-06T13:30:58.265Z,20.50
2023-03-06T13:34:33.653Z,19.98
2023-03-06T13:37:44.509Z,25.90
2023-03-06T13:41:31.240Z,17.42
2023-03-06T13:44:40.993Z,21.33
2023-03-06T13:51:32.443Z,21.55
2023-03-06T13:54:58.312Z,23.30
2023-03-06T13:58:40.302Z,25.10
2023-03-06T14:02:24.348Z,23.07
2023-03-06T14:05:43.938Z,22.15
2023-03-06T14:08:53.283Z,23.05
2023-03-06T14:12:31.333Z,21.65
2023-03-06T14:15:49.407Z,19.98
2023-03-06T14:19:00.725Z,23.20
2023-03-06T14:22:10.226Z,22.58
2023-03-06T14:25:38.266Z,39.90
2023-03-06T14:28:46.325Z,23.60
2023-03-06T14:32:04.318Z,24.10
2023-03-06T14:35:25.125Z,25.13
2023-03-06T14:38:37.406Z,22.70
2023-03-06T14:41:45.885Z,35.65
2023-03-06T14:44:56.344Z,25.98
2023-03-06T14:48:13.389Z,25.75
2023-03-06T14:54:42.252Z,22.90
2023-03-06T14:58:04.284Z,22.35
2023-03-06T15:01:14.846Z,40.50
2023-03-06T15:04:38.325Z,21.98
2023-03-06T15:07:41.913Z,21.70
2023-03-06T15:11:07.296Z,21.08
2023-03-06T15:14:26.416Z,19.67
2023-03-06T15:17:40.530Z,25.27
2023-03-06T15:20:54.379Z,22.85
2023-03-06T15:24:32.706Z,21.90
2023-03-06T15:27:47.286Z,19.65
2023-03-06T15:31:01.383Z,21.35
2023-03-06T15:34:25.287Z,22.13
2023-03-06T15:37:34.316Z,22.52
2023-03-06T15:40:42.265Z,21.47
2023-03-06T15:43:50.988Z,23.27
2023-03-06T15:47:07.816Z,27.87
2023-03-06T15:50:22.027Z,27.40
2023-03-06T15:53:33.797Z,24.92
2023-03-06T15:56:51.313Z,16.93
2023-03-06T15:59:54.061Z,18.75
2023-03-06T16:03:11.347Z,25.35
2023-03-06T16:06:16.866Z,22.02
2023-03-06T16:09:31.371Z,19.80
2023-03-06T16:12:57.307Z,19.73
2023-03-06T16:16:13.370Z,33.43
2023-03-06T16:19:27.307Z,19.50
2023-03-06T16:23:07.403Z,41.33
2023-03-06T16:26:23.107Z,22.60
2023-03-06T16:29:33.459Z,32.63
2023-03-06T16:32:42.054Z,17.67
2023-03-06T16:35:50.388Z,20.08
2023-03-06T16:38:58.978Z,18.30
2023-03-06T16:42:07.390Z,24.87
2023-03-06T16:45:24.289Z,21.87
2023-03-06T16:48:33.377Z,21.17
2023-03-06T16:51:48.340Z,25.08
2023-03-06T16:54:57.371Z,20.90
2023-03-06T16:58:06.223Z,21.37
2023-03-06T17:01:16.343Z,20.50
2023-03-06T17:04:32.365Z,20.83
2023-03-06T17:07:35.328Z,19.27
2023-03-06T17:10:50.347Z,23.40
2023-03-06T17:13:52.583Z,22.33
2023-03-06T17:17:07.404Z,19.85
2023-03-06T17:20:11.005Z,22.13
2023-03-06T17:23:28.415Z,19.75
2023-03-06T17:26:43.465Z,20.45
2023-03-06T17:29:52.365Z,22.52
2023-03-06T17:33:01.374Z,21.12
2023-03-06T17:36:10.426Z,19.87
2023-03-06T17:39:25.716Z,20.25
2023-03-06T17:42:28.232Z,23.83
2023-03-06T17:45:43.318Z,25.05
2023-03-06T17:48:51.173Z,22.27
2023-03-06T17:52:09.371Z,25.13
2023-03-06T17:55:24.329Z,27.52
2023-03-06T17:58:27.088Z,23.87
2023-03-06T18:01:41.506Z,25.50
2023-03-06T18:04:50.374Z,23.33
2023-03-06T18:08:05.360Z,23.03
2023-03-06T18:11:21.388Z,22.20
2023-03-06T18:14:32.795Z,21.52
2023-03-06T18:17:47.347Z,21.37
2023-03-06T18:21:03.433Z,25.02
2023-03-06T18:24:05.615Z,30.37
2023-03-06T18:27:20.376Z,23.55
2023-03-06T18:30:22.436Z,30.17
2023-03-06T18:33:38.498Z,21.80
2023-03-06T18:36:48.367Z,22.00
2023-03-06T18:39:57.166Z,23.83
2023-03-06T18:43:06.418Z,23.42
2023-03-06T18:46:14.970Z,25.42
2023-03-06T18:49:23.526Z,20.30
2023-03-06T18:52:40.365Z,26.23
2023-03-06T18:55:51.307Z,27.93
2023-03-06T18:59:10.513Z,23.90
2023-03-06T19:02:13.088Z,26.50
2023-03-06T19:05:27.528Z,22.60
2023-03-06T19:08:45.379Z,25.25
2023-03-06T19:11:54.995Z,32.63
2023-03-06T19:15:10.513Z,26.27
2023-03-06T19:18:16.470Z,37.50
2023-03-06T19:21:34.562Z,25.70
2023-03-06T19:24:36.676Z,28.87
2023-03-06T19:27:51.379Z,23.03
2023-03-06T19:31:00.599Z,27.27
2023-03-06T19:34:09.410Z,24.85
2023-03-06T19:37:18.029Z,27.35
2023-03-06T19:40:26.501Z,28.33
2023-03-06T19:43:35.410Z,26.17
2023-03-06T19:46:43.671Z,23.87
2023-03-06T19:49:52.101Z,27.62
2023-03-06T19:53:00.380Z,23.92
2023-03-06T19:56:20.372Z,27.10
2023-03-06T19:59:22.417Z,24.93
2023-03-06T20:02:37.455Z,27.48
2023-03-06T20:05:46.302Z,26.50
2023-03-06T20:09:01.637Z,26.40
2023-03-06T20:12:23.466Z,27.98
2023-03-06T20:15:25.369Z,29.87
2023-03-06T20:18:40.381Z,25.85
2023-03-06T20:21:42.514Z,25.17
2023-03-06T20:24:57.434Z,22.95
2023-03-06T20:27:59.258Z,27.48
2023-03-06T20:31:20.516Z,29.27
2023-03-06T20:34:29.425Z,25.98
2023-03-06T20:37:38.266Z,27.48
2023-03-06T20:40:48.522Z,24.75
2023-03-06T20:44:06.422Z,26.30
2023-03-06T20:47:18.052Z,32.93
2023-03-06T20:50:27.417Z,29.48
2023-03-06T20:53:35.986Z,32.08
2023-03-06T20:56:44.388Z,27.25
2023-03-06T20:59:53.094Z,26.95
2023-03-06T21:03:01.499Z,35.80
2023-03-06T21:06:16.445Z,29.87
2023-03-06T21:09:18.475Z,27.77
2023-03-06T21:12:40.412Z,30.08
2023-03-06T21:15:43.303Z,25.50
2023-03-06T21:19:00.596Z,26.90
2023-03-06T21:22:09.441Z,30.30
2023-03-06T21:25:24.439Z,27.65
2023-03-06T21:28:26.306Z,29.27
2023-03-06T21:31:42.586Z,22.62
2023-03-06T21:34:51.227Z,25.10
2023-03-06T21:37:59.432Z,22.62
2023-03-06T21:41:12.607Z,26.52
2023-03-06T21:44:20.514Z,22.87
2023-03-06T21:47:29.033Z,22.90
2023-03-06T21:50:37.457Z,24.50
2023-03-06T21:53:47.912Z,23.73
2023-03-06T21:56:56.538Z,23.83
2023-03-06T22:00:05.937Z,25.70
2023-03-06T22:03:20.426Z,27.20
2023-03-06T22:06:31.459Z,25.13
2023-03-06T22:09:46.475Z,25.88
2023-03-06T22:12:55.773Z,26.10
2023-03-06T22:16:11.581Z,30.20
2023-03-06T22:19:13.645Z,32.83
2023-03-06T22:22:29.468Z,25.57
2023-03-06T22:25:37.478Z,24.73
2023-03-06T22:28:52.504Z,31.23
2023-03-06T22:31:54.396Z,24.48
2023-03-06T22:35:09.442Z,28.90
2023-03-06T22:38:17.499Z,26.13
2023-03-06T22:41:33.485Z,25.15
2023-03-06T22:44:48.446Z,27.98
2023-03-06T22:48:10.898Z,22.05
2023-03-06T22:51:17.756Z,27.17
2023-03-06T22:54:32.446Z,26.87
2023-03-06T22:57:34.252Z,26.17
2023-03-06T23:00:49.450Z,30.55
2023-03-06T23:03:53.887Z,25.15
2023-03-06T23:07:08.486Z,26.08
2023-03-06T23:10:17.494Z,30.13
2023-03-06T23:13:32.829Z,30.45
2023-03-06T23:16:42.492Z,22.40
2023-03-06T23:19:51.122Z,28.73
2023-03-06T23:22:59.493Z,30.73
2023-03-06T23:26:08.788Z,31.40
2023-03-06T23:29:17.516Z,30.08
2023-03-06T23:32:32.588Z,30.37
2023-03-06T23:35:35.913Z,29.17
2023-03-06T23:38:51.522Z,34.97
2023-03-06T23:41:53.462Z,30.37
2023-03-06T23:45:08.538Z,34.25
2023-03-06T23:48:10.654Z,29.87
2023-03-06T23:51:28.614Z,32.30
2023-03-06T23:54:37.463Z,33.78
2023-03-06T23:57:52.512Z,32.07
